createdAt,value
2022-11-01T00:00:59.179Z,99725.72
2022-11-01T00:03:25.917Z,99736.50
2022-11-01T00:05:53.050Z,99726.03
2022-11-01T00:08:21.105Z,99714.72
2022-11-01T00:10:48.118Z,99725.94
2022-11-01T00:13:14.807Z,99716.41
2022-11-01T00:15:42.459Z,99728.66
2022-11-01T00:18:09.331Z,99720.06
2022-11-01T00:20:36.088Z,99722.94
2022-11-01T00:23:03.168Z,99713.75
2022-11-01T00:25:31.528Z,99723.06
2022-11-01T00:27:58.429Z,99718.88
2022-11-01T00:30:25.387Z,99711.75
2022-11-01T00:32:52.057Z,99714.94
2022-11-01T00:35:18.915Z,99712.00
2022-11-01T00:37:45.605Z,99709.28
2022-11-01T00:40:12.982Z,99697.03
2022-11-01T00:42:41.011Z,99704.19
2022-11-01T00:45:08.538Z,99707.47
2022-11-01T00:47:35.236Z,99701.25
2022-11-01T00:50:02.244Z,99701.94
2022-11-01T00:52:29.612Z,99701.78
2022-11-01T00:54:56.323Z,99703.31
2022-11-01T00:57:23.451Z,99709.75
2022-11-01T01:02:23.206Z,99718.13
2022-11-01T01:04:50.343Z,99717.31
2022-11-01T01:07:17.674Z,99719.63
2022-11-01T01:09:44.599Z,99715.28
2022-11-01T01:12:11.538Z,99712.56
2022-11-01T01:14:38.312Z,99707.16
2022-11-01T01:17:06.387Z,99707.72
2022-11-01T01:19:33.248Z,99716.91
2022-11-01T01:21:59.989Z,99708.19
2022-11-01T01:24:27.441Z,99699.13
2022-11-01T01:26:54.255Z,99699.13
2022-11-01T01:29:21.072Z,99707.72
2022-11-01T01:31:49.771Z,99710.22
2022-11-01T01:34:18.538Z,99709.75
2022-11-01T01:36:50.756Z,99700.16
2022-11-01T01:39:17.934Z,99713.03
2022-11-01T01:41:44.853Z,99701.44
2022-11-01T01:45:24.475Z,99702.47
2022-11-01T01:47:54.269Z,99706.97
2022-11-01T01:50:29.359Z,99702.84
2022-11-01T01:53:05.348Z,99708.63
2022-11-01T01:55:41.412Z,99715.97
2022-11-01T01:58:11.677Z,99710.31
2022-11-01T02:00:39.884Z,99709.03
2022-11-01T02:03:07.293Z,99708.56
2022-11-01T02:05:44.879Z,99716.47
2022-11-01T02:08:14.461Z,99717.09
2022-11-01T02:10:42.137Z,99718.88
2022-11-01T02:13:14.109Z,99726.34
2022-11-01T02:15:59.248Z,99711.94
2022-11-01T02:18:40.160Z,99715.25
2022-11-01T02:21:43.747Z,99710.44
2022-11-01T02:24:44.523Z,99718.56
2022-11-01T02:27:23.611Z,99717.53
2022-11-01T02:30:09.691Z,99716.91
2022-11-01T02:33:12.615Z,99721.81
2022-11-01T02:35:56.386Z,99719.47
2022-11-01T02:38:32.372Z,99715.72
2022-11-01T02:41:10.678Z,99718.03
2022-11-01T02:43:50.644Z,99708.03
2022-11-01T02:46:21.386Z,99707.34
2022-11-01T02:48:50.332Z,99713.91
2022-11-01T02:51:22.916Z,99706.84
2022-11-01T02:53:49.888Z,99703.66
2022-11-01T02:56:18.387Z,99685.47
2022-11-01T02:58:48.159Z,99682.44
2022-11-01T03:01:25.035Z,99696.38
2022-11-01T03:03:58.608Z,99725.50
2022-11-01T03:06:33.403Z,99715.44
2022-11-01T03:09:07.310Z,99722.19
2022-11-01T03:11:48.879Z,99729.06
2022-11-01T03:14:31.672Z,99709.56
2022-11-01T03:17:08.092Z,99711.28
2022-11-01T03:19:47.186Z,99687.03
2022-11-01T03:22:24.609Z,99709.56
2022-11-01T03:25:03.011Z,99741.44
2022-11-01T03:27:39.525Z,99737.03
2022-11-01T03:30:11.001Z,99729.50
2022-11-01T03:32:46.709Z,99711.41
2022-11-01T03:35:21.860Z,99724.59
2022-11-01T03:37:54.372Z,99746.13
2022-11-01T03:40:26.689Z,99733.56
2022-11-01T03:43:01.730Z,99731.38
2022-11-01T03:45:34.557Z,99752.16
2022-11-01T03:48:02.290Z,99760.06
2022-11-01T03:50:30.555Z,99763.16
2022-11-01T03:52:58.399Z,99776.63
2022-11-01T03:55:25.995Z,99773.47
2022-11-01T03:57:55.901Z,99771.34
2022-11-01T04:00:27.466Z,99776.41
2022-11-01T04:02:56.768Z,99788.56
2022-11-01T04:05:26.103Z,99795.00
2022-11-01T04:08:09.417Z,99809.44
2022-11-01T04:10:37.549Z,99793.72
2022-11-01T04:13:04.966Z,99805.97
2022-11-01T04:15:32.090Z,99814.03
2022-11-01T04:18:11.310Z,99800.56
2022-11-01T04:20:38.458Z,99802.38
2022-11-01T04:23:07.422Z,99810.91
2022-11-01T04:25:34.707Z,99779.78
2022-11-01T04:28:01.440Z,99783.09
2022-11-01T04:30:29.905Z,99788.34
2022-11-01T04:32:56.838Z,99806.63
2022-11-01T04:35:24.111Z,99804.88
2022-11-01T04:37:56.463Z,99830.50
2022-11-01T04:40:25.431Z,99844.28
2022-11-01T04:42:52.184Z,99839.84
2022-11-01T04:45:19.949Z,99835.25
2022-11-01T04:47:46.984Z,99844.84
2022-11-01T04:50:14.441Z,99859.53
2022-11-01T04:52:41.301Z,99855.91
2022-11-01T04:55:08.761Z,99863.63
2022-11-01T04:57:39.419Z,99842.75
2022-11-01T05:00:08.976Z,99860.16
2022-11-01T05:02:36.160Z,99846.97
2022-11-01T05:05:03.642Z,99852.25
2022-11-01T05:07:30.572Z,99841.28
2022-11-01T05:09:57.310Z,99832.84
2022-11-01T05:12:24.397Z,99844.03
2022-11-01T05:14:56.682Z,99846.84
2022-11-01T05:17:24.133Z,99845.00
2022-11-01T05:19:51.290Z,99843.78
2022-11-01T05:22:18.060Z,99850.13
2022-11-01T05:24:45.215Z,99869.06
2022-11-01T05:27:11.959Z,99873.63
2022-11-01T05:29:38.922Z,99875.09
2022-11-01T05:32:06.977Z,99871.63
2022-11-01T05:34:33.966Z,99878.25
2022-11-01T05:37:00.730Z,99879.03
2022-11-01T05:39:27.638Z,99865.56
2022-11-01T05:41:56.828Z,99867.81
2022-11-01T05:44:27.195Z,99864.19
2022-11-01T05:46:54.538Z,99869.75
2022-11-01T05:49:22.579Z,99872.19
2022-11-01T05:51:49.321Z,99878.81
2022-11-01T05:54:16.094Z,99884.63
2022-11-01T05:56:42.829Z,99887.41
2022-11-01T05:59:09.776Z,99891.41
2022-11-01T06:01:36.628Z,99877.84
2022-11-01T06:04:03.667Z,99876.94
2022-11-01T06:06:32.650Z,99873.66
2022-11-01T06:09:00.386Z,99885.53
2022-11-01T06:11:27.562Z,99882.94
2022-11-01T06:13:54.546Z,99867.25
2022-11-01T06:16:22.085Z,99876.94
2022-11-01T06:18:49.508Z,99890.41
2022-11-01T06:21:16.358Z,99900.34
2022-11-01T06:23:48.800Z,99900.81
2022-11-01T06:26:16.011Z,99910.97
2022-11-01T06:28:42.983Z,99920.44
2022-11-01T06:31:09.948Z,99901.41
2022-11-01T06:33:36.676Z,99906.91
2022-11-01T06:36:04.723Z,99914.53
2022-11-01T06:38:32.605Z,99913.16
2022-11-01T06:41:01.142Z,99915.78
2022-11-01T06:43:27.946Z,99920.69
2022-11-01T06:45:54.786Z,99926.84
2022-11-01T06:48:21.596Z,99932.81
2022-11-01T06:50:48.349Z,99930.69
2022-11-01T06:53:15.313Z,99933.09
2022-11-01T06:55:42.044Z,99936.56
2022-11-01T06:58:10.094Z,99932.31
2022-11-01T07:00:36.945Z,99935.41
2022-11-01T07:03:07.235Z,99936.81
2022-11-01T07:05:37.520Z,99947.84
2022-11-01T07:08:10.006Z,99951.75
2022-11-01T07:10:39.144Z,99958.97
2022-11-01T07:13:09.150Z,99959.63
2022-11-01T07:15:38.051Z,99962.47
2022-11-01T07:18:07.525Z,99957.41
2022-11-01T07:20:36.310Z,99962.13
2022-11-01T07:23:05.907Z,99964.41
2022-11-01T07:25:33.444Z,99970.44
2022-11-01T07:28:00.153Z,99970.66
2022-11-01T07:30:28.283Z,99982.50
2022-11-01T07:32:58.177Z,99985.94
2022-11-01T07:35:26.461Z,99993.97
2022-11-01T07:37:55.918Z,99991.97
2022-11-01T07:40:22.905Z,99998.31
2022-11-01T07:42:49.611Z,100006.19
2022-11-01T07:45:16.558Z,100004.66
2022-11-01T07:47:44.016Z,100000.78
2022-11-01T07:50:12.154Z,100004.88
2022-11-01T07:52:39.028Z,100006.22
2022-11-01T07:55:07.696Z,100003.44
2022-11-01T07:57:37.489Z,99999.16
2022-11-01T08:00:06.487Z,100012.09
2022-11-01T08:02:39.265Z,100001.56
2022-11-01T08:05:07.002Z,100005.50
2022-11-01T08:07:39.542Z,100006.56
2022-11-01T08:10:09.969Z,100016.00
2022-11-01T08:12:38.025Z,100009.94
2022-11-01T08:15:06.217Z,100012.13
2022-11-01T08:17:34.383Z,100006.06
2022-11-01T08:20:01.219Z,100018.34
2022-11-01T08:22:28.164Z,100024.63
2022-11-01T08:24:56.425Z,100026.22
2022-11-01T08:27:23.386Z,100036.00
2022-11-01T08:29:50.223Z,100036.84
2022-11-01T08:32:20.468Z,100027.88
2022-11-01T08:34:47.540Z,100026.56
2022-11-01T08:37:14.891Z,100040.66
2022-11-01T08:39:41.944Z,100043.97
2022-11-01T08:42:10.215Z,100034.50
2022-11-01T08:44:37.204Z,100033.19
2022-11-01T08:47:04.366Z,100034.97
2022-11-01T08:49:31.245Z,100039.94
2022-11-01T08:51:58.032Z,100041.09
2022-11-01T08:54:24.749Z,100048.19
2022-11-01T08:56:51.521Z,100038.88
2022-11-01T08:59:19.767Z,100032.13
2022-11-01T09:01:46.833Z,100024.81
2022-11-01T09:04:14.412Z,100023.31
2022-11-01T09:06:41.251Z,100029.78
2022-11-01T09:09:08.059Z,100038.66
2022-11-01T09:11:34.857Z,100031.97
2022-11-01T09:14:01.999Z,100047.22
2022-11-01T09:16:30.286Z,100050.59
2022-11-01T09:18:57.408Z,100045.41
2022-11-01T09:21:29.056Z,100054.84
2022-11-01T09:23:58.339Z,100048.66
2022-11-01T09:26:25.349Z,100055.78
2022-11-01T09:28:52.545Z,100056.38
2022-11-01T09:31:21.584Z,100064.28
2022-11-01T09:33:50.065Z,100064.13
2022-11-01T09:36:16.828Z,100070.09
2022-11-01T09:38:43.577Z,100075.28
2022-11-01T09:41:25.433Z,100072.00
2022-11-01T09:43:54.963Z,100069.63
2022-11-01T09:46:27.408Z,100067.00
2022-11-01T09:48:58.489Z,100060.34
2022-11-01T09:51:26.494Z,100069.13
2022-11-01T09:53:58.045Z,100068.50
2022-11-01T09:56:33.440Z,100073.94
2022-11-01T09:59:16.533Z,100071.59
2022-11-01T10:01:57.602Z,100076.53
2022-11-01T10:05:05.401Z,100073.25
2022-11-01T10:07:49.745Z,100067.66
2022-11-01T10:10:37.368Z,100075.06
2022-11-01T10:13:25.134Z,100082.72
2022-11-01T10:16:04.238Z,100085.16
2022-11-01T10:18:37.478Z,100085.59
2022-11-01T10:21:15.262Z,100087.63
2022-11-01T10:23:50.214Z,100093.31
2022-11-01T10:26:26.080Z,100092.16
2022-11-01T10:29:04.367Z,100100.56
2022-11-01T10:31:42.761Z,100094.72
2022-11-01T10:34:23.289Z,100101.66
2022-11-01T10:37:00.809Z,100106.50
2022-11-01T10:39:54.709Z,100104.31
2022-11-01T10:42:23.675Z,100102.25
2022-11-01T10:44:58.089Z,100094.97
2022-11-01T10:47:26.624Z,100097.47
2022-11-01T10:50:05.879Z,100105.44
2022-11-01T10:52:49.308Z,100101.34
2022-11-01T10:55:24.949Z,100097.75
2022-11-01T10:57:58.337Z,100092.78
2022-11-01T11:00:25.641Z,100097.63
2022-11-01T11:02:57.454Z,100103.13
2022-11-01T11:05:29.389Z,100088.66
2022-11-01T11:07:57.870Z,100087.03
2022-11-01T11:10:28.155Z,100088.13
2022-11-01T11:13:00.813Z,100089.84
2022-11-01T11:15:39.517Z,100098.69
2022-11-01T11:18:22.411Z,100095.53
2022-11-01T11:20:56.907Z,100098.84
2022-11-01T11:23:28.840Z,100113.97
2022-11-01T11:26:03.012Z,100112.06
2022-11-01T11:28:34.299Z,100118.56
2022-11-01T11:31:14.157Z,100134.38
2022-11-01T11:33:49.784Z,100133.44
2022-11-01T11:36:16.867Z,100129.84
2022-11-01T11:38:47.314Z,100135.03
2022-11-01T11:41:29.533Z,100141.69
2022-11-01T11:43:56.628Z,100135.69
2022-11-01T11:46:23.582Z,100135.41
2022-11-01T11:48:53.394Z,100136.72
2022-11-01T11:51:21.468Z,100134.75
2022-11-01T11:54:20.204Z,100135.41
2022-11-01T11:56:51.311Z,100128.94
2022-11-01T11:59:28.043Z,100139.13
2022-11-01T12:01:58.545Z,100140.38
2022-11-01T12:04:36.418Z,100143.56
2022-11-01T12:07:03.630Z,100142.53
2022-11-01T12:09:44.524Z,100142.00
2022-11-01T12:12:22.898Z,100140.13
2022-11-01T12:14:50.380Z,100146.53
2022-11-01T12:17:30.386Z,100138.06
2022-11-01T12:20:15.989Z,100141.94
2022-11-01T12:22:49.970Z,100140.28
2022-11-01T12:25:23.545Z,100141.88
2022-11-01T12:27:58.623Z,100135.94
2022-11-01T12:30:30.599Z,100140.22
2022-11-01T12:33:01.233Z,100145.44
2022-11-01T12:35:33.231Z,100139.47
2022-11-01T12:38:27.733Z,100133.38
2022-11-01T12:41:00.448Z,100136.97
2022-11-01T12:43:42.336Z,100138.94
2022-11-01T12:46:20.541Z,100140.72
2022-11-01T12:48:57.540Z,100141.34
2022-11-01T12:51:30.021Z,100129.34
2022-11-01T12:54:06.520Z,100139.63
2022-11-01T12:56:34.806Z,100135.19
2022-11-01T12:59:01.540Z,100133.47
2022-11-01T13:01:42.757Z,100130.19
2022-11-01T13:04:27.601Z,100134.72
2022-11-01T13:07:17.295Z,100128.63
2022-11-01T13:09:59.157Z,100139.78
2022-11-01T13:12:45.489Z,100141.72
2022-11-01T13:15:24.218Z,100151.31
2022-11-01T13:18:07.498Z,100145.53
2022-11-01T13:20:50.259Z,100141.91
2022-11-01T13:23:28.275Z,100147.88
2022-11-01T13:26:04.059Z,100137.59
2022-11-01T13:29:00.106Z,100134.06
2022-11-01T13:31:52.647Z,100136.09
2022-11-01T13:34:43.665Z,100134.06
2022-11-01T13:37:26.689Z,100138.41
2022-11-01T13:40:16.472Z,100128.66
2022-11-01T13:42:53.661Z,100123.53
2022-11-01T13:45:51.751Z,100131.97
2022-11-01T13:48:33.365Z,100132.38
2022-11-01T13:51:28.264Z,100130.50
2022-11-01T13:54:02.807Z,100127.81
2022-11-01T13:56:39.324Z,100121.97
2022-11-01T13:59:13.995Z,100123.97
2022-11-01T14:01:42.709Z,100124.72
2022-11-01T14:04:54.801Z,100123.00
2022-11-01T14:07:22.470Z,100117.69
2022-11-01T14:09:51.595Z,100122.00
2022-11-01T14:12:37.470Z,100117.47
2022-11-01T14:15:27.186Z,100114.84
2022-11-01T14:18:09.260Z,100115.00
2022-11-01T14:20:49.552Z,100117.97
2022-11-01T14:23:58.114Z,100117.50
2022-11-01T14:26:44.326Z,100110.81
2022-11-01T14:29:12.110Z,100114.72
2022-11-01T14:31:43.098Z,100129.06
2022-11-01T14:34:26.404Z,100126.06
2022-11-01T14:37:00.274Z,100135.09
2022-11-01T14:39:37.260Z,100131.28
2022-11-01T14:42:10.042Z,100135.75
2022-11-01T14:44:45.499Z,100140.22
2022-11-01T14:47:31.116Z,100130.22
2022-11-01T14:50:14.132Z,100140.16
2022-11-01T14:52:50.696Z,100145.75
2022-11-01T14:55:24.725Z,100148.63
2022-11-01T14:58:16.794Z,100148.50
2022-11-01T15:00:43.845Z,100149.63
2022-11-01T15:03:11.028Z,100160.09
2022-11-01T15:05:46.255Z,100161.28
2022-11-01T15:08:23.496Z,100152.03
2022-11-01T15:10:52.767Z,100151.44
2022-11-01T15:13:21.564Z,100156.16
2022-11-01T15:16:02.391Z,100151.53
2022-11-01T15:18:30.568Z,100155.69
2022-11-01T15:21:01.000Z,100159.00
2022-11-01T15:23:37.258Z,100157.09
2022-11-01T15:26:10.054Z,100168.72
2022-11-01T15:28:42.957Z,100163.50
2022-11-01T15:31:10.210Z,100150.09
2022-11-01T15:33:37.683Z,100157.81
2022-11-01T15:36:18.433Z,100161.28
2022-11-01T15:38:51.793Z,100162.00
2022-11-01T15:41:28.504Z,100158.94
2022-11-01T15:43:58.256Z,100160.84
2022-11-01T15:46:32.985Z,100161.31
2022-11-01T15:49:07.231Z,100166.22
2022-11-01T15:51:42.283Z,100164.69
2022-11-01T15:54:28.093Z,100158.88
2022-11-01T15:57:04.283Z,100156.44
2022-11-01T15:59:42.086Z,100161.78
2022-11-01T16:02:24.413Z,100166.06
2022-11-01T16:04:51.835Z,100171.22
2022-11-01T16:07:22.185Z,100172.22
2022-11-01T16:09:55.612Z,100175.78
2022-11-01T16:12:26.644Z,100180.63
2022-11-01T16:15:00.184Z,100178.50
2022-11-01T16:17:34.229Z,100174.13
2022-11-01T16:20:02.158Z,100189.63
2022-11-01T16:22:37.159Z,100187.03
2022-11-01T16:25:18.424Z,100189.00
2022-11-01T16:27:55.597Z,100196.00
2022-11-01T16:30:38.517Z,100201.09
2022-11-01T16:33:16.504Z,100207.13
2022-11-01T16:35:44.497Z,100204.56
2022-11-01T16:38:36.148Z,100199.22
2022-11-01T16:41:06.943Z,100213.19
2022-11-01T16:43:35.253Z,100203.53
2022-11-01T16:46:05.313Z,100211.31
2022-11-01T16:48:47.855Z,100220.16
2022-11-01T16:51:14.765Z,100213.16
2022-11-01T16:53:42.997Z,100224.59
2022-11-01T16:56:35.686Z,100222.09
2022-11-01T16:59:08.276Z,100230.53
2022-11-01T17:01:36.468Z,100231.97
2022-11-01T17:04:04.687Z,100237.25
2022-11-01T17:06:37.742Z,100244.41
2022-11-01T17:09:12.962Z,100240.34
2022-11-01T17:11:40.246Z,100240.59
2022-11-01T17:14:06.996Z,100249.53
2022-11-01T17:16:34.649Z,100243.66
2022-11-01T17:19:02.927Z,100247.22
2022-11-01T17:21:36.655Z,100258.09
2022-11-01T17:24:04.471Z,100256.06
2022-11-01T17:26:33.811Z,100253.78
2022-11-01T17:29:00.616Z,100257.13
2022-11-01T17:31:27.349Z,100255.81
2022-11-01T17:33:54.114Z,100257.34
2022-11-01T17:36:20.905Z,100253.16
2022-11-01T17:38:47.900Z,100250.66
2022-11-01T17:41:18.436Z,100260.66
2022-11-01T17:43:46.882Z,100272.75
2022-11-01T17:46:18.307Z,100262.47
2022-11-01T17:48:45.026Z,100263.97
2022-11-01T17:51:11.937Z,100270.09
2022-11-01T17:53:38.835Z,100270.13
2022-11-01T17:56:06.826Z,100266.47
2022-11-01T17:58:33.711Z,100265.28
2022-11-01T18:01:02.914Z,100271.69
2022-11-01T18:03:29.811Z,100266.63
2022-11-01T18:05:57.762Z,100278.47
2022-11-01T18:08:27.992Z,100277.59
2022-11-01T18:11:13.237Z,100280.97
2022-11-01T18:14:01.124Z,100281.94
2022-11-01T18:16:45.635Z,100289.31
2022-11-01T18:19:38.432Z,100283.31
2022-11-01T18:22:17.882Z,100297.47
2022-11-01T18:24:51.328Z,100292.03
2022-11-01T18:27:30.821Z,100286.97
2022-11-01T18:29:57.582Z,100294.69
2022-11-01T18:32:38.006Z,100289.25
2022-11-01T18:35:21.215Z,100291.75
2022-11-01T18:38:10.501Z,100285.28
2022-11-01T18:40:51.444Z,100291.81
2022-11-01T18:43:20.443Z,100298.03
2022-11-01T18:46:11.545Z,100292.84
2022-11-01T18:48:37.051Z,100300.16
2022-11-01T18:51:13.699Z,100297.22
2022-11-01T18:53:40.825Z,100305.56
2022-11-01T18:56:21.416Z,100299.91
2022-11-01T18:58:53.081Z,100305.94
2022-11-01T19:01:23.843Z,100301.34
2022-11-01T19:04:01.468Z,100310.44
2022-11-01T19:06:31.914Z,100302.09
2022-11-01T19:09:09.521Z,100313.59
2022-11-01T19:11:36.549Z,100306.28
2022-11-01T19:14:05.191Z,100308.16
2022-11-01T19:16:32.189Z,100306.03
2022-11-01T19:19:00.361Z,100304.88
2022-11-01T19:21:29.556Z,100307.41
2022-11-01T19:23:56.726Z,100302.84
2022-11-01T19:26:32.306Z,100306.78
2022-11-01T19:28:59.213Z,100297.00
2022-11-01T19:31:30.836Z,100294.47
2022-11-01T19:34:03.706Z,100301.75
2022-11-01T19:39:24.392Z,100294.47
2022-11-01T19:41:53.468Z,100298.81
2022-11-01T19:44:23.973Z,100301.75
2022-11-01T19:46:58.410Z,100307.00
2022-11-01T19:49:29.833Z,100305.94
2022-11-01T19:52:22.346Z,100301.34
2022-11-01T19:54:53.004Z,100304.69
2022-11-01T19:57:29.202Z,100305.50
2022-11-01T20:00:17.601Z,100311.38
2022-11-01T20:02:45.409Z,100310.94
2022-11-01T20:05:27.776Z,100311.59
2022-11-01T20:08:12.956Z,100314.53
2022-11-01T20:10:40.039Z,100310.38
2022-11-01T20:13:06.954Z,100311.63
2022-11-01T20:15:34.072Z,100317.44
2022-11-01T20:18:02.049Z,100312.44
2022-11-01T20:20:31.756Z,100308.09
2022-11-01T20:23:20.345Z,100308.50
2022-11-01T20:25:45.890Z,100314.13
2022-11-01T20:28:12.708Z,100318.25
2022-11-01T20:30:39.514Z,100325.91
2022-11-01T20:33:06.797Z,100327.19
2022-11-01T20:35:35.100Z,100317.84
2022-11-01T20:38:01.825Z,100328.66
2022-11-01T20:40:28.587Z,100330.06
2022-11-01T20:42:55.284Z,100330.88
2022-11-01T20:45:22.906Z,100340.25
2022-11-01T20:47:49.716Z,100339.41
2022-11-01T20:50:18.508Z,100340.91
2022-11-01T20:52:46.720Z,100351.91
2022-11-01T20:55:13.782Z,100337.13
2022-11-01T20:57:41.001Z,100351.91
2022-11-01T21:00:10.635Z,100355.25
2022-11-01T21:02:37.661Z,100351.53
2022-11-01T21:05:20.741Z,100347.19
2022-11-01T21:07:52.665Z,100346.78
2022-11-01T21:10:30.675Z,100349.47
2022-11-01T21:12:58.664Z,100362.81
2022-11-01T21:15:35.598Z,100353.84
2022-11-01T21:18:38.700Z,100357.81
2022-11-01T21:21:31.297Z,100350.31
2022-11-01T21:24:25.768Z,100361.75
2022-11-01T21:27:00.126Z,100361.94
2022-11-01T21:29:29.400Z,100355.44
2022-11-01T21:31:56.696Z,100354.19
2022-11-01T21:34:27.572Z,100353.28
2022-11-01T21:36:56.996Z,100353.88
2022-11-01T21:39:28.553Z,100350.56
2022-11-01T21:41:58.767Z,100358.09
2022-11-01T21:44:30.658Z,100361.66
2022-11-01T21:47:13.805Z,100359.81
2022-11-01T21:49:41.026Z,100355.44
2022-11-01T21:54:40.712Z,100356.72
2022-11-01T21:57:10.325Z,100361.94
2022-11-01T21:59:37.563Z,100357.53
2022-11-01T22:02:07.499Z,100357.53
2022-11-01T22:04:34.446Z,100362.94
2022-11-01T22:07:03.920Z,100368.56
2022-11-01T22:09:32.439Z,100374.81
2022-11-01T22:12:00.909Z,100363.56
2022-11-01T22:14:28.007Z,100362.31
2022-11-01T22:16:55.326Z,100359.34
2022-11-01T22:19:22.448Z,100358.56
2022-11-01T22:21:49.204Z,100368.97
2022-11-01T22:24:16.196Z,100362.72
2022-11-01T22:26:42.980Z,100362.06
2022-11-01T22:29:11.630Z,100368.84
2022-11-01T22:31:38.462Z,100377.53
2022-11-01T22:34:05.517Z,100365.69
2022-11-01T22:36:36.187Z,100364.22
2022-11-01T22:39:16.872Z,100367.75
2022-11-01T22:41:44.419Z,100370.84
2022-11-01T22:44:16.407Z,100367.88
2022-11-01T22:46:49.405Z,100364.16
2022-11-01T22:49:23.484Z,100366.94
2022-11-01T22:51:54.833Z,100369.09
2022-11-01T22:54:29.914Z,100371.47
2022-11-01T22:57:02.749Z,100379.88
2022-11-01T22:59:34.300Z,100376.19
2022-11-01T23:02:24.174Z,100377.63
2022-11-01T23:05:01.446Z,100391.22
2022-11-01T23:07:34.414Z,100386.28
2022-11-01T23:10:03.976Z,100390.84
2022-11-01T23:12:33.313Z,100390.63
2022-11-01T23:15:01.370Z,100385.69
2022-11-01T23:17:36.053Z,100391.09
2022-11-01T23:20:04.836Z,100395.69
2022-11-01T23:22:35.896Z,100393.25
2022-11-01T23:25:04.907Z,100389.44
2022-11-01T23:27:31.948Z,100398.41
2022-11-01T23:30:02.370Z,100393.41
2022-11-01T23:32:31.547Z,100393.78
2022-11-01T23:35:10.989Z,100402.34
2022-11-01T23:37:37.889Z,100405.44
2022-11-01T23:40:13.325Z,100396.03
2022-11-01T23:42:40.600Z,100399.91
2022-11-01T23:45:27.533Z,100405.06
2022-11-01T23:47:54.883Z,100401.56
2022-11-01T23:50:28.926Z,100399.16
2022-11-01T23:52:59.560Z,100394.84
2022-11-01T23:55:31.199Z,100392.78
2022-11-01T23:58:02.374Z,100401.41
